sensor_id;sensor_type;location;lat;lon;timestamp;P1;durP1;ratioP1;P2;durP2;ratioP2
1613;SDS011;800;48.824;9.346;2022-07-29T00:00:42;5.07;;;4.67;;
1613;SDS011;800;48.824;9.346;2022-07-29T00:03:11;6.53;;;5.00;;
1613;SDS011;800;48.824;9.346;2022-07-29T00:05:38;5.10;;;4.70;;
1613;SDS011;800;48.824;9.346;2022-07-29T00:08:07;4.90;;;4.40;;
1613;SDS011;800;48.824;9.346;2022-07-29T00:10:33;4.60;;;4.20;;
1613;SDS011;800;48.824;9.346;2022-07-29T00:12:59;6.07;;;5.47;;
1613;SDS011;800;48.824;9.346;2022-07-29T00:15:25;4.57;;;4.23;;
1613;SDS011;800;48.824;9.346;2022-07-29T00:17:51;5.67;;;4.90;;
1613;SDS011;800;48.824;9.346;2022-07-29T00:20:16;5.57;;;4.83;;
1613;SDS011;800;48.824;9.346;2022-07-29T00:22:42;4.80;;;4.40;;
1613;SDS011;800;48.824;9.346;2022-07-29T00:25:08;5.20;;;4.50;;
1613;SDS011;800;48.824;9.346;2022-07-29T00:27:34;4.87;;;4.37;;
1613;SDS011;800;48.824;9.346;2022-07-29T00:30:01;5.30;;;4.80;;
1613;SDS011;800;48.824;9.346;2022-07-29T00:32:28;5.10;;;4.70;;
1613;SDS011;800;48.824;9.346;2022-07-29T00:34:53;5.17;;;4.77;;
1613;SDS011;800;48.824;9.346;2022-07-29T00:37:38;5.20;;;4.80;;
1613;SDS011;800;48.824;9.346;2022-07-29T00:40:04;5.53;;;4.83;;
1613;SDS011;800;48.824;9.346;2022-07-29T00:42:30;5.60;;;5.10;;
1613;SDS011;800;48.824;9.346;2022-07-29T00:44:55;4.93;;;4.53;;
1613;SDS011;800;48.824;9.346;2022-07-29T00:47:21;5.40;;;5.00;;
1613;SDS011;800;48.824;9.346;2022-07-29T00:49:46;5.67;;;5.20;;
1613;SDS011;800;48.824;9.346;2022-07-29T00:52:12;8.03;;;4.83;;
1613;SDS011;800;48.824;9.346;2022-07-29T00:54:39;5.07;;;4.60;;
1613;SDS011;800;48.824;9.346;2022-07-29T00:57:05;4.30;;;4.00;;
1613;SDS011;800;48.824;9.346;2022-07-29T00:59:32;5.03;;;4.63;;
1613;SDS011;800;48.824;9.346;2022-07-29T01:01:59;7.93;;;5.80;;
1613;SDS011;800;48.824;9.346;2022-07-29T01:04:24;7.50;;;5.53;;
1613;SDS011;800;48.824;9.346;2022-07-29T01:06:50;4.90;;;4.40;;
1613;SDS011;800;48.824;9.346;2022-07-29T01:09:17;6.03;;;5.60;;
1613;SDS011;800;48.824;9.346;2022-07-29T01:11:43;5.20;;;4.80;;
1613;SDS011;800;48.824;9.346;2022-07-29T01:14:12;6.93;;;5.20;;
1613;SDS011;800;48.824;9.346;2022-07-29T01:16:42;5.50;;;4.90;;
1613;SDS011;800;48.824;9.346;2022-07-29T01:30:28;5.63;;;5.13;;
1613;SDS011;800;48.824;9.346;2022-07-29T01:32:56;5.57;;;5.10;;
1613;SDS011;800;48.824;9.346;2022-07-29T01:35:28;5.63;;;5.07;;
1613;SDS011;800;48.824;9.346;2022-07-29T01:38:04;5.83;;;5.33;;
1613;SDS011;800;48.824;9.346;2022-07-29T01:40:39;6.00;;;5.40;;
1613;SDS011;800;48.824;9.346;2022-07-29T01:43:16;5.03;;;4.73;;
1613;SDS011;800;48.824;9.346;2022-07-29T01:45:48;5.97;;;5.47;;
1613;SDS011;800;48.824;9.346;2022-07-29T01:48:19;6.20;;;5.70;;
1613;SDS011;800;48.824;9.346;2022-07-29T01:50:53;5.80;;;5.30;;
1613;SDS011;800;48.824;9.346;2022-07-29T01:54:10;8.10;;;5.33;;
1613;SDS011;800;48.824;9.346;2022-07-29T01:56:24;5.30;;;4.90;;
1613;SDS011;800;48.824;9.346;2022-07-29T01:58:55;5.07;;;4.53;;
1613;SDS011;800;48.824;9.346;2022-07-29T02:01:23;5.77;;;5.37;;
1613;SDS011;800;48.824;9.346;2022-07-29T02:03:50;6.13;;;5.67;;
1613;SDS011;800;48.824;9.346;2022-07-29T02:06:19;5.27;;;4.40;;
1613;SDS011;800;48.824;9.346;2022-07-29T02:08:47;5.80;;;5.07;;
1613;SDS011;800;48.824;9.346;2022-07-29T02:11:14;5.80;;;5.40;;
1613;SDS011;800;48.824;9.346;2022-07-29T02:13:40;5.07;;;4.53;;
1613;SDS011;800;48.824;9.346;2022-07-29T02:16:07;4.90;;;4.60;;
1613;SDS011;800;48.824;9.346;2022-07-29T02:18:35;5.63;;;5.23;;
1613;SDS011;800;48.824;9.346;2022-07-29T02:21:02;5.20;;;4.70;;
1613;SDS011;800;48.824;9.346;2022-07-29T02:23:28;5.20;;;4.70;;
1613;SDS011;800;48.824;9.346;2022-07-29T02:25:57;4.80;;;4.50;;
1613;SDS011;800;48.824;9.346;2022-07-29T02:28:25;6.93;;;6.40;;
1613;SDS011;800;48.824;9.346;2022-07-29T02:30:54;6.17;;;5.70;;
1613;SDS011;800;48.824;9.346;2022-07-29T02:33:22;6.87;;;5.00;;
1613;SDS011;800;48.824;9.346;2022-07-29T02:35:49;6.60;;;6.10;;
1613;SDS011;800;48.824;9.346;2022-07-29T02:38:16;5.53;;;5.03;;
1613;SDS011;800;48.824;9.346;2022-07-29T02:41:01;5.97;;;5.03;;
1613;SDS011;800;48.824;9.346;2022-07-29T02:43:32;6.10;;;5.50;;
1613;SDS011;800;48.824;9.346;2022-07-29T02:46:00;6.50;;;5.83;;
1613;SDS011;800;48.824;9.346;2022-07-29T02:48:29;7.00;;;5.00;;
1613;SDS011;800;48.824;9.346;2022-07-29T02:51:04;6.00;;;5.50;;
1613;SDS011;800;48.824;9.346;2022-07-29T02:53:33;4.87;;;4.57;;
1613;SDS011;800;48.824;9.346;2022-07-29T02:56:03;5.80;;;5.20;;
1613;SDS011;800;48.824;9.346;2022-07-29T02:58:40;5.40;;;5.00;;
1613;SDS011;800;48.824;9.346;2022-07-29T03:01:16;5.20;;;4.90;;
1613;SDS011;800;48.824;9.346;2022-07-29T03:03:49;5.90;;;5.40;;
1613;SDS011;800;48.824;9.346;2022-07-29T03:06:17;5.47;;;5.00;;
1613;SDS011;800;48.824;9.346;2022-07-29T03:08:46;5.67;;;5.20;;
1613;SDS011;800;48.824;9.346;2022-07-29T03:11:13;5.77;;;5.37;;
1613;SDS011;800;48.824;9.346;2022-07-29T03:13:39;5.87;;;5.47;;
1613;SDS011;800;48.824;9.346;2022-07-29T03:16:05;5.23;;;4.83;;
1613;SDS011;800;48.824;9.346;2022-07-29T03:18:33;6.13;;;5.67;;
1613;SDS011;800;48.824;9.346;2022-07-29T03:21:00;5.73;;;5.33;;
1613;SDS011;800;48.824;9.346;2022-07-29T03:23:26;5.53;;;5.03;;
1613;SDS011;800;48.824;9.346;2022-07-29T03:25:52;6.47;;;5.97;;
1613;SDS011;800;48.824;9.346;2022-07-29T03:28:18;6.10;;;5.60;;
1613;SDS011;800;48.824;9.346;2022-07-29T03:30:44;6.73;;;6.13;;
1613;SDS011;800;48.824;9.346;2022-07-29T03:33:10;6.23;;;5.80;;
1613;SDS011;800;48.824;9.346;2022-07-29T03:35:36;6.50;;;6.00;;
1613;SDS011;800;48.824;9.346;2022-07-29T03:38:02;6.60;;;6.00;;
1613;SDS011;800;48.824;9.346;2022-07-29T03:40:31;5.90;;;5.40;;
1613;SDS011;800;48.824;9.346;2022-07-29T03:43:09;5.83;;;5.43;;
1613;SDS011;800;48.824;9.346;2022-07-29T03:45:37;6.30;;;5.80;;
1613;SDS011;800;48.824;9.346;2022-07-29T03:48:05;10.23;;;5.90;;
1613;SDS011;800;48.824;9.346;2022-07-29T03:50:35;6.73;;;6.23;;
1613;SDS011;800;48.824;9.346;2022-07-29T03:53:01;6.60;;;6.10;;
1613;SDS011;800;48.824;9.346;2022-07-29T03:55:28;5.80;;;5.40;;
1613;SDS011;800;48.824;9.346;2022-07-29T03:57:57;6.17;;;5.57;;
1613;SDS011;800;48.824;9.346;2022-07-29T04:00:25;5.93;;;5.53;;
1613;SDS011;800;48.824;9.346;2022-07-29T04:02:52;5.80;;;5.30;;
1613;SDS011;800;48.824;9.346;2022-07-29T04:05:18;6.77;;;5.40;;
1613;SDS011;800;48.824;9.346;2022-07-29T04:07:44;6.20;;;5.70;;
1613;SDS011;800;48.824;9.346;2022-07-29T04:10:10;6.43;;;5.83;;
1613;SDS011;800;48.824;9.346;2022-07-29T04:12:36;6.07;;;5.57;;
1613;SDS011;800;48.824;9.346;2022-07-29T04:15:05;6.80;;;6.13;;
1613;SDS011;800;48.824;9.346;2022-07-29T04:17:31;6.70;;;5.80;;
1613;SDS011;800;48.824;9.346;2022-07-29T04:19:56;6.27;;;5.77;;
1613;SDS011;800;48.824;9.346;2022-07-29T04:22:22;9.07;;;7.17;;
1613;SDS011;800;48.824;9.346;2022-07-29T04:24:48;5.43;;;4.97;;
1613;SDS011;800;48.824;9.346;2022-07-29T04:27:13;6.57;;;5.83;;
1613;SDS011;800;48.824;9.346;2022-07-29T04:29:39;6.03;;;5.63;;
1613;SDS011;800;48.824;9.346;2022-07-29T04:32:05;6.30;;;5.80;;
1613;SDS011;800;48.824;9.346;2022-07-29T04:34:31;6.50;;;5.90;;
1613;SDS011;800;48.824;9.346;2022-07-29T04:36:56;5.93;;;5.43;;
1613;SDS011;800;48.824;9.346;2022-07-29T04:39:22;6.07;;;5.57;;
1613;SDS011;800;48.824;9.346;2022-07-29T04:41:48;5.93;;;5.37;;
1613;SDS011;800;48.824;9.346;2022-07-29T04:44:15;5.87;;;5.37;;
1613;SDS011;800;48.824;9.346;2022-07-29T04:46:40;6.30;;;5.90;;
1613;SDS011;800;48.824;9.346;2022-07-29T04:49:06;6.57;;;6.07;;
1613;SDS011;800;48.824;9.346;2022-07-29T04:51:31;7.30;;;6.60;;
1613;SDS011;800;48.824;9.346;2022-07-29T04:53:58;6.73;;;6.23;;
1613;SDS011;800;48.824;9.346;2022-07-29T04:56:23;6.30;;;5.70;;
1613;SDS011;800;48.824;9.346;2022-07-29T04:58:49;5.70;;;5.20;;
1613;SDS011;800;48.824;9.346;2022-07-29T05:01:15;7.00;;;6.50;;
1613;SDS011;800;48.824;9.346;2022-07-29T05:03:41;6.23;;;5.63;;
1613;SDS011;800;48.824;9.346;2022-07-29T05:06:06;5.93;;;5.43;;
1613;SDS011;800;48.824;9.346;2022-07-29T05:08:32;7.20;;;6.50;;
1613;SDS011;800;48.824;9.346;2022-07-29T05:10:58;7.90;;;5.73;;
1613;SDS011;800;48.824;9.346;2022-07-29T05:13:23;8.40;;;6.40;;
1613;SDS011;800;48.824;9.346;2022-07-29T05:15:49;9.40;;;7.40;;
1613;SDS011;800;48.824;9.346;2022-07-29T05:18:15;6.93;;;6.43;;
1613;SDS011;800;48.824;9.346;2022-07-29T05:20:40;6.10;;;5.67;;
1613;SDS011;800;48.824;9.346;2022-07-29T05:23:06;6.43;;;5.63;;
1613;SDS011;800;48.824;9.346;2022-07-29T05:25:32;6.77;;;6.17;;
1613;SDS011;800;48.824;9.346;2022-07-29T05:27:58;6.27;;;5.87;;
1613;SDS011;800;48.824;9.346;2022-07-29T05:30:23;5.90;;;5.30;;
1613;SDS011;800;48.824;9.346;2022-07-29T05:32:49;5.97;;;5.47;;
1613;SDS011;800;48.824;9.346;2022-07-29T05:35:15;6.33;;;5.70;;
1613;SDS011;800;48.824;9.346;2022-07-29T05:37:40;6.70;;;5.73;;
1613;SDS011;800;48.824;9.346;2022-07-29T05:40:07;6.20;;;5.77;;
1613;SDS011;800;48.824;9.346;2022-07-29T05:42:33;5.87;;;5.47;;
1613;SDS011;800;48.824;9.346;2022-07-29T05:44:59;7.30;;;6.20;;
1613;SDS011;800;48.824;9.346;2022-07-29T05:47:25;6.40;;;5.90;;
1613;SDS011;800;48.824;9.346;2022-07-29T05:49:51;6.10;;;5.60;;
1613;SDS011;800;48.824;9.346;2022-07-29T05:52:17;6.40;;;5.80;;
1613;SDS011;800;48.824;9.346;2022-07-29T05:54:43;6.73;;;6.00;;
1613;SDS011;800;48.824;9.346;2022-07-29T05:57:27;7.23;;;6.53;;
1613;SDS011;800;48.824;9.346;2022-07-29T05:59:52;7.10;;;5.67;;
1613;SDS011;800;48.824;9.346;2022-07-29T06:02:19;6.40;;;5.90;;
1613;SDS011;800;48.824;9.346;2022-07-29T06:04:44;6.10;;;5.55;;
1613;SDS011;800;48.824;9.346;2022-07-29T06:07:10;9.90;;;8.87;;
1613;SDS011;800;48.824;9.346;2022-07-29T06:09:36;11.13;;;9.37;;
1613;SDS011;800;48.824;9.346;2022-07-29T06:12:02;7.33;;;6.70;;
1613;SDS011;800;48.824;9.346;2022-07-29T06:14:28;6.23;;;5.63;;
1613;SDS011;800;48.824;9.346;2022-07-29T06:16:54;7.10;;;6.50;;
1613;SDS011;800;48.824;9.346;2022-07-29T06:19:20;5.80;;;5.30;;
1613;SDS011;800;48.824;9.346;2022-07-29T06:21:46;7.83;;;5.43;;
1613;SDS011;800;48.824;9.346;2022-07-29T06:24:12;5.97;;;5.37;;
1613;SDS011;800;48.824;9.346;2022-07-29T06:26:39;7.93;;;6.20;;
1613;SDS011;800;48.824;9.346;2022-07-29T06:29:05;5.70;;;5.20;;
1613;SDS011;800;48.824;9.346;2022-07-29T06:31:31;6.70;;;6.10;;
1613;SDS011;800;48.824;9.346;2022-07-29T06:33:57;6.30;;;5.10;;
1613;SDS011;800;48.824;9.346;2022-07-29T06:36:22;6.90;;;5.73;;
1613;SDS011;800;48.824;9.346;2022-07-29T06:38:48;5.80;;;5.30;;
1613;SDS011;800;48.824;9.346;2022-07-29T06:41:13;5.70;;;5.20;;
1613;SDS011;800;48.824;9.346;2022-07-29T06:43:41;5.27;;;4.27;;
1613;SDS011;800;48.824;9.346;2022-07-29T06:46:12;4.60;;;4.27;;
1613;SDS011;800;48.824;9.346;2022-07-29T06:48:40;5.60;;;4.63;;
1613;SDS011;800;48.824;9.346;2022-07-29T06:51:07;5.07;;;4.40;;
1613;SDS011;800;48.824;9.346;2022-07-29T06:53:33;5.03;;;4.67;;
1613;SDS011;800;48.824;9.346;2022-07-29T06:56:00;5.30;;;4.10;;
1613;SDS011;800;48.824;9.346;2022-07-29T06:58:27;4.80;;;4.47;;
1613;SDS011;800;48.824;9.346;2022-07-29T07:00:54;5.07;;;4.67;;
1613;SDS011;800;48.824;9.346;2022-07-29T07:03:20;4.33;;;4.03;;
1613;SDS011;800;48.824;9.346;2022-07-29T07:05:46;4.40;;;4.10;;
1613;SDS011;800;48.824;9.346;2022-07-29T07:08:12;4.30;;;3.80;;
1613;SDS011;800;48.824;9.346;2022-07-29T07:10:38;5.17;;;4.77;;
1613;SDS011;800;48.824;9.346;2022-07-29T07:13:04;4.70;;;4.20;;
1613;SDS011;800;48.824;9.346;2022-07-29T07:15:31;5.83;;;4.63;;
1613;SDS011;800;48.824;9.346;2022-07-29T07:17:57;4.10;;;3.80;;
1613;SDS011;800;48.824;9.346;2022-07-29T07:20:23;5.03;;;4.60;;
1613;SDS011;800;48.824;9.346;2022-07-29T07:22:49;4.63;;;4.07;;
1613;SDS011;800;48.824;9.346;2022-07-29T07:25:15;6.47;;;4.37;;
1613;SDS011;800;48.824;9.346;2022-07-29T07:27:42;4.70;;;4.30;;
1613;SDS011;800;48.824;9.346;2022-07-29T07:30:08;4.50;;;4.20;;
1613;SDS011;800;48.824;9.346;2022-07-29T07:32:35;4.30;;;3.90;;
1613;SDS011;800;48.824;9.346;2022-07-29T07:35:01;4.30;;;4.00;;
1613;SDS011;800;48.824;9.346;2022-07-29T07:37:28;4.30;;;3.90;;
1613;SDS011;800;48.824;9.346;2022-07-29T07:39:54;4.47;;;4.07;;
1613;SDS011;800;48.824;9.346;2022-07-29T07:42:19;4.53;;;3.63;;
1613;SDS011;800;48.824;9.346;2022-07-29T07:44:46;4.60;;;4.20;;
1613;SDS011;800;48.824;9.346;2022-07-29T07:47:13;6.80;;;3.70;;
1613;SDS011;800;48.824;9.346;2022-07-29T07:49:39;3.87;;;3.60;;
1613;SDS011;800;48.824;9.346;2022-07-29T07:52:05;4.50;;;3.73;;
1613;SDS011;800;48.824;9.346;2022-07-29T07:54:31;4.70;;;4.30;;
1613;SDS011;800;48.824;9.346;2022-07-29T07:56:56;4.07;;;3.77;;
1613;SDS011;800;48.824;9.346;2022-07-29T07:59:22;4.20;;;3.90;;
1613;SDS011;800;48.824;9.346;2022-07-29T08:01:48;4.13;;;3.83;;
1613;SDS011;800;48.824;9.346;2022-07-29T08:04:14;4.13;;;3.90;;
1613;SDS011;800;48.824;9.346;2022-07-29T08:06:39;5.10;;;4.70;;
1613;SDS011;800;48.824;9.346;2022-07-29T08:09:05;4.30;;;4.00;;
1613;SDS011;800;48.824;9.346;2022-07-29T08:11:31;3.87;;;3.50;;
1613;SDS011;800;48.824;9.346;2022-07-29T08:13:57;3.90;;;3.60;;
1613;SDS011;800;48.824;9.346;2022-07-29T08:16:23;4.17;;;3.60;;
1613;SDS011;800;48.824;9.346;2022-07-29T08:18:50;5.73;;;4.67;;
1613;SDS011;800;48.824;9.346;2022-07-29T08:21:16;4.30;;;3.60;;
1613;SDS011;800;48.824;9.346;2022-07-29T08:23:45;4.60;;;3.73;;
1613;SDS011;800;48.824;9.346;2022-07-29T08:26:13;3.93;;;3.63;;
1613;SDS011;800;48.824;9.346;2022-07-29T08:28:40;4.63;;;4.23;;
1613;SDS011;800;48.824;9.346;2022-07-29T08:31:11;3.67;;;3.37;;
1613;SDS011;800;48.824;9.346;2022-07-29T08:33:37;4.40;;;4.00;;
1613;SDS011;800;48.824;9.346;2022-07-29T08:36:04;4.00;;;3.70;;
1613;SDS011;800;48.824;9.346;2022-07-29T08:38:31;3.97;;;3.67;;
1613;SDS011;800;48.824;9.346;2022-07-29T08:40:56;3.97;;;3.67;;
1613;SDS011;800;48.824;9.346;2022-07-29T08:43:23;4.93;;;4.07;;
1613;SDS011;800;48.824;9.346;2022-07-29T08:45:50;4.13;;;3.73;;
1613;SDS011;800;48.824;9.346;2022-07-29T08:48:17;4.57;;;4.17;;
1613;SDS011;800;48.824;9.346;2022-07-29T08:50:44;4.10;;;3.70;;
1613;SDS011;800;48.824;9.346;2022-07-29T08:53:12;4.10;;;3.90;;
1613;SDS011;800;48.824;9.346;2022-07-29T08:55:40;6.67;;;4.30;;
1613;SDS011;800;48.824;9.346;2022-07-29T08:58:10;4.73;;;4.27;;
1613;SDS011;800;48.824;9.346;2022-07-29T09:00:49;4.20;;;3.90;;
1613;SDS011;800;48.824;9.346;2022-07-29T09:03:20;4.27;;;3.97;;
1613;SDS011;800;48.824;9.346;2022-07-29T09:05:48;4.47;;;4.07;;
1613;SDS011;800;48.824;9.346;2022-07-29T09:08:15;4.37;;;3.97;;
1613;SDS011;800;48.824;9.346;2022-07-29T09:10:42;4.77;;;4.47;;
1613;SDS011;800;48.824;9.346;2022-07-29T09:13:08;4.90;;;4.43;;
1613;SDS011;800;48.824;9.346;2022-07-29T09:15:34;4.57;;;4.27;;
1613;SDS011;800;48.824;9.346;2022-07-29T09:17:59;5.20;;;4.47;;
1613;SDS011;800;48.824;9.346;2022-07-29T09:20:25;4.77;;;4.07;;
1613;SDS011;800;48.824;9.346;2022-07-29T09:23:11;5.63;;;5.13;;
1613;SDS011;800;48.824;9.346;2022-07-29T09:25:39;4.57;;;4.20;;
1613;SDS011;800;48.824;9.346;2022-07-29T09:30:36;4.97;;;4.67;;
1613;SDS011;800;48.824;9.346;2022-07-29T09:33:17;4.93;;;4.63;;
1613;SDS011;800;48.824;9.346;2022-07-29T09:35:43;4.57;;;4.20;;
1613;SDS011;800;48.824;9.346;2022-07-29T09:38:10;4.70;;;4.30;;
1613;SDS011;800;48.824;9.346;2022-07-29T09:40:39;5.30;;;4.23;;
1613;SDS011;800;48.824;9.346;2022-07-29T09:43:09;5.00;;;4.60;;
1613;SDS011;800;48.824;9.346;2022-07-29T09:45:36;4.10;;;3.80;;
1613;SDS011;800;48.824;9.346;2022-07-29T09:48:19;4.80;;;4.43;;
1613;SDS011;800;48.824;9.346;2022-07-29T09:50:49;5.03;;;4.63;;
1613;SDS011;800;48.824;9.346;2022-07-29T09:53:32;4.27;;;3.90;;
1613;SDS011;800;48.824;9.346;2022-07-29T09:55:59;5.10;;;4.60;;
1613;SDS011;800;48.824;9.346;2022-07-29T09:58:25;5.00;;;4.60;;
1613;SDS011;800;48.824;9.346;2022-07-29T10:00:51;5.53;;;4.63;;
1613;SDS011;800;48.824;9.346;2022-07-29T10:03:19;5.53;;;4.90;;
1613;SDS011;800;48.824;9.346;2022-07-29T10:05:46;4.97;;;4.47;;
1613;SDS011;800;48.824;9.346;2022-07-29T10:08:30;7.70;;;4.87;;
1613;SDS011;800;48.824;9.346;2022-07-29T10:11:08;5.97;;;4.40;;
1613;SDS011;800;48.824;9.346;2022-07-29T10:13:34;4.40;;;4.10;;
1613;SDS011;800;48.824;9.346;2022-07-29T10:16:00;5.70;;;5.30;;
1613;SDS011;800;48.824;9.346;2022-07-29T10:18:26;5.10;;;4.60;;
1613;SDS011;800;48.824;9.346;2022-07-29T10:20:51;5.27;;;4.80;;
1613;SDS011;800;48.824;9.346;2022-07-29T10:23:18;5.13;;;4.73;;
1613;SDS011;800;48.824;9.346;2022-07-29T10:25:45;6.50;;;4.63;;
1613;SDS011;800;48.824;9.346;2022-07-29T10:28:11;5.60;;;4.53;;
1613;SDS011;800;48.824;9.346;2022-07-29T10:30:37;8.97;;;4.90;;
1613;SDS011;800;48.824;9.346;2022-07-29T10:36:02;5.50;;;5.00;;
1613;SDS011;800;48.824;9.346;2022-07-29T10:38:48;6.27;;;5.77;;
1613;SDS011;800;48.824;9.346;2022-07-29T10:42:11;5.60;;;5.10;;
1613;SDS011;800;48.824;9.346;2022-07-29T10:44:32;5.23;;;4.83;;
1613;SDS011;800;48.824;9.346;2022-07-29T10:46:59;5.30;;;4.80;;
1613;SDS011;800;48.824;9.346;2022-07-29T10:49:25;6.00;;;5.40;;
1613;SDS011;800;48.824;9.346;2022-07-29T10:51:59;5.40;;;4.90;;
1613;SDS011;800;48.824;9.346;2022-07-29T11:07:23;6.83;;;4.90;;
1613;SDS011;800;48.824;9.346;2022-07-29T11:15:03;7.53;;;5.33;;
1613;SDS011;800;48.824;9.346;2022-07-29T11:20:38;9.83;;;7.00;;
1613;SDS011;800;48.824;9.346;2022-07-29T11:28:52;8.37;;;6.90;;
1613;SDS011;800;48.824;9.346;2022-07-29T11:31:34;9.90;;;7.00;;
1613;SDS011;800;48.824;9.346;2022-07-29T11:39:30;9.10;;;6.60;;
1613;SDS011;800;48.824;9.346;2022-07-29T11:47:41;7.87;;;7.13;;
1613;SDS011;800;48.824;9.346;2022-07-29T11:50:14;12.53;;;7.40;;
1613;SDS011;800;48.824;9.346;2022-07-29T11:52:45;7.80;;;7.20;;
1613;SDS011;800;48.824;9.346;2022-07-29T11:55:14;6.97;;;6.23;;
1613;SDS011;800;48.824;9.346;2022-07-29T11:57:57;8.90;;;5.83;;
1613;SDS011;800;48.824;9.346;2022-07-29T12:00:31;5.93;;;5.33;;
1613;SDS011;800;48.824;9.346;2022-07-29T12:02:59;7.13;;;5.70;;
1613;SDS011;800;48.824;9.346;2022-07-29T12:05:40;6.70;;;5.80;;
1613;SDS011;800;48.824;9.346;2022-07-29T12:08:14;5.93;;;5.43;;
1613;SDS011;800;48.824;9.346;2022-07-29T12:10:44;6.80;;;5.40;;
1613;SDS011;800;48.824;9.346;2022-07-29T12:13:11;5.20;;;4.43;;
1613;SDS011;800;48.824;9.346;2022-07-29T12:15:39;6.17;;;5.30;;
1613;SDS011;800;48.824;9.346;2022-07-29T12:18:12;5.67;;;5.27;;
1613;SDS011;800;48.824;9.346;2022-07-29T12:20:45;5.03;;;4.40;;
1613;SDS011;800;48.824;9.346;2022-07-29T12:23:11;5.77;;;3.63;;
1613;SDS011;800;48.824;9.346;2022-07-29T12:25:39;3.40;;;3.10;;
1613;SDS011;800;48.824;9.346;2022-07-29T12:28:07;6.07;;;3.40;;
1613;SDS011;800;48.824;9.346;2022-07-29T12:30:35;5.20;;;3.13;;
1613;SDS011;800;48.824;9.346;2022-07-29T12:33:10;3.97;;;3.53;;
1613;SDS011;800;48.824;9.346;2022-07-29T12:36:00;3.43;;;3.23;;
1613;SDS011;800;48.824;9.346;2022-07-29T12:38:26;4.10;;;3.80;;
1613;SDS011;800;48.824;9.346;2022-07-29T12:40:53;5.80;;;4.33;;
1613;SDS011;800;48.824;9.346;2022-07-29T12:43:23;4.60;;;3.70;;
1613;SDS011;800;48.824;9.346;2022-07-29T12:45:51;4.90;;;3.80;;
1613;SDS011;800;48.824;9.346;2022-07-29T12:48:32;4.33;;;3.73;;
1613;SDS011;800;48.824;9.346;2022-07-29T12:51:05;3.57;;;3.17;;
1613;SDS011;800;48.824;9.346;2022-07-29T12:53:33;4.67;;;3.40;;
1613;SDS011;800;48.824;9.346;2022-07-29T12:56:00;3.27;;;3.07;;
1613;SDS011;800;48.824;9.346;2022-07-29T12:58:27;4.20;;;3.80;;
1613;SDS011;800;48.824;9.346;2022-07-29T13:01:26;4.60;;;3.20;;
1613;SDS011;800;48.824;9.346;2022-07-29T13:03:52;3.33;;;3.13;;
1613;SDS011;800;48.824;9.346;2022-07-29T13:06:34;4.13;;;3.67;;
1613;SDS011;800;48.824;9.346;2022-07-29T13:11:47;3.00;;;2.70;;
1613;SDS011;800;48.824;9.346;2022-07-29T13:14:34;3.47;;;3.17;;
1613;SDS011;800;48.824;9.346;2022-07-29T13:19:49;7.60;;;3.50;;
1613;SDS011;800;48.824;9.346;2022-07-29T13:22:17;3.90;;;3.60;;
1613;SDS011;800;48.824;9.346;2022-07-29T13:24:51;4.00;;;3.63;;
1613;SDS011;800;48.824;9.346;2022-07-29T13:27:22;4.07;;;3.70;;
1613;SDS011;800;48.824;9.346;2022-07-29T13:29:49;3.33;;;3.13;;
1613;SDS011;800;48.824;9.346;2022-07-29T13:32:17;3.70;;;3.40;;
1613;SDS011;800;48.824;9.346;2022-07-29T13:34:43;4.53;;;3.57;;
1613;SDS011;800;48.824;9.346;2022-07-29T13:37:08;8.43;;;3.40;;
1613;SDS011;800;48.824;9.346;2022-07-29T13:39:34;4.13;;;3.73;;
1613;SDS011;800;48.824;9.346;2022-07-29T13:42:00;4.40;;;3.77;;
1613;SDS011;800;48.824;9.346;2022-07-29T13:44:26;4.17;;;3.77;;
1613;SDS011;800;48.824;9.346;2022-07-29T13:46:52;4.87;;;3.53;;
1613;SDS011;800;48.824;9.346;2022-07-29T13:49:17;3.80;;;3.50;;
1613;SDS011;800;48.824;9.346;2022-07-29T13:51:43;3.40;;;3.20;;
1613;SDS011;800;48.824;9.346;2022-07-29T13:54:08;9.03;;;3.83;;
1613;SDS011;800;48.824;9.346;2022-07-29T13:56:34;8.47;;;3.77;;
1613;SDS011;800;48.824;9.346;2022-07-29T13:59:00;3.47;;;3.27;;
1613;SDS011;800;48.824;9.346;2022-07-29T14:01:25;3.20;;;3.00;;
1613;SDS011;800;48.824;9.346;2022-07-29T14:03:52;4.30;;;4.00;;
1613;SDS011;800;48.824;9.346;2022-07-29T14:06:18;7.40;;;3.90;;
1613;SDS011;800;48.824;9.346;2022-07-29T14:08:44;4.00;;;3.40;;
1613;SDS011;800;48.824;9.346;2022-07-29T14:11:09;7.43;;;4.70;;
1613;SDS011;800;48.824;9.346;2022-07-29T14:13:35;4.50;;;4.10;;
1613;SDS011;800;48.824;9.346;2022-07-29T14:16:01;6.27;;;3.97;;
1613;SDS011;800;48.824;9.346;2022-07-29T14:18:26;4.20;;;3.90;;
1613;SDS011;800;48.824;9.346;2022-07-29T14:20:52;6.30;;;4.97;;
1613;SDS011;800;48.824;9.346;2022-07-29T14:23:17;4.53;;;4.23;;
1613;SDS011;800;48.824;9.346;2022-07-29T14:25:43;4.60;;;4.20;;
1613;SDS011;800;48.824;9.346;2022-07-29T14:28:09;4.60;;;4.20;;
1613;SDS011;800;48.824;9.346;2022-07-29T14:30:34;4.80;;;4.40;;
1613;SDS011;800;48.824;9.346;2022-07-29T14:33:00;4.80;;;4.50;;
1613;SDS011;800;48.824;9.346;2022-07-29T14:35:25;5.70;;;5.03;;
1613;SDS011;800;48.824;9.346;2022-07-29T14:37:51;5.33;;;4.70;;
1613;SDS011;800;48.824;9.346;2022-07-29T14:40:17;6.93;;;4.33;;
1613;SDS011;800;48.824;9.346;2022-07-29T14:42:42;8.20;;;5.10;;
1613;SDS011;800;48.824;9.346;2022-07-29T14:45:08;4.97;;;4.47;;
1613;SDS011;800;48.824;9.346;2022-07-29T14:47:34;5.30;;;4.87;;
1613;SDS011;800;48.824;9.346;2022-07-29T14:50:00;5.83;;;5.33;;
1613;SDS011;800;48.824;9.346;2022-07-29T14:52:26;5.27;;;4.40;;
1613;SDS011;800;48.824;9.346;2022-07-29T14:54:51;4.70;;;4.30;;
1613;SDS011;800;48.824;9.346;2022-07-29T14:57:17;4.87;;;4.47;;
1613;SDS011;800;48.824;9.346;2022-07-29T14:59:42;6.90;;;5.10;;
1613;SDS011;800;48.824;9.346;2022-07-29T15:02:08;5.30;;;4.50;;
1613;SDS011;800;48.824;9.346;2022-07-29T15:04:34;6.67;;;6.10;;
1613;SDS011;800;48.824;9.346;2022-07-29T15:06:59;7.83;;;5.10;;
1613;SDS011;800;48.824;9.346;2022-07-29T15:09:25;6.27;;;5.63;;
1613;SDS011;800;48.824;9.346;2022-07-29T15:11:50;9.23;;;6.70;;
1613;SDS011;800;48.824;9.346;2022-07-29T15:14:16;5.53;;;4.83;;
1613;SDS011;800;48.824;9.346;2022-07-29T15:16:42;10.93;;;5.20;;
1613;SDS011;800;48.824;9.346;2022-07-29T15:19:10;5.67;;;5.17;;
1613;SDS011;800;48.824;9.346;2022-07-29T15:21:36;6.20;;;5.70;;
1613;SDS011;800;48.824;9.346;2022-07-29T15:24:02;7.60;;;5.70;;
1613;SDS011;800;48.824;9.346;2022-07-29T15:26:28;6.63;;;5.47;;
1613;SDS011;800;48.824;9.346;2022-07-29T15:28:53;6.00;;;5.60;;
1613;SDS011;800;48.824;9.346;2022-07-29T15:31:20;6.10;;;5.60;;
1613;SDS011;800;48.824;9.346;2022-07-29T15:33:46;5.83;;;5.17;;
1613;SDS011;800;48.824;9.346;2022-07-29T15:36:12;6.30;;;5.80;;
1613;SDS011;800;48.824;9.346;2022-07-29T15:38:38;7.90;;;5.93;;
1613;SDS011;800;48.824;9.346;2022-07-29T15:41:05;6.70;;;6.10;;
1613;SDS011;800;48.824;9.346;2022-07-29T15:43:31;6.20;;;5.63;;
1613;SDS011;800;48.824;9.346;2022-07-29T15:45:59;7.20;;;5.77;;
1613;SDS011;800;48.824;9.346;2022-07-29T15:48:43;6.30;;;5.80;;
1613;SDS011;800;48.824;9.346;2022-07-29T15:51:09;6.27;;;5.50;;
1613;SDS011;800;48.824;9.346;2022-07-29T15:53:34;6.20;;;5.53;;
1613;SDS011;800;48.824;9.346;2022-07-29T15:56:00;6.40;;;5.63;;
1613;SDS011;800;48.824;9.346;2022-07-29T15:58:26;6.20;;;5.70;;
1613;SDS011;800;48.824;9.346;2022-07-29T16:00:52;6.60;;;5.87;;
1613;SDS011;800;48.824;9.346;2022-07-29T16:03:17;6.10;;;5.50;;
1613;SDS011;800;48.824;9.346;2022-07-29T16:05:43;5.77;;;5.20;;
1613;SDS011;800;48.824;9.346;2022-07-29T16:08:09;6.57;;;6.07;;
1613;SDS011;800;48.824;9.346;2022-07-29T16:10:35;6.67;;;6.07;;
1613;SDS011;800;48.824;9.346;2022-07-29T16:13:00;8.17;;;6.20;;
1613;SDS011;800;48.824;9.346;2022-07-29T16:15:26;6.87;;;5.67;;
1613;SDS011;800;48.824;9.346;2022-07-29T16:17:51;9.50;;;5.57;;
1613;SDS011;800;48.824;9.346;2022-07-29T16:20:17;6.67;;;5.47;;
1613;SDS011;800;48.824;9.346;2022-07-29T16:22:42;6.03;;;5.53;;
1613;SDS011;800;48.824;9.346;2022-07-29T16:25:08;5.50;;;5.00;;
1613;SDS011;800;48.824;9.346;2022-07-29T16:27:34;11.17;;;6.63;;
1613;SDS011;800;48.824;9.346;2022-07-29T16:30:00;6.57;;;5.87;;
1613;SDS011;800;48.824;9.346;2022-07-29T16:32:25;8.23;;;6.27;;
1613;SDS011;800;48.824;9.346;2022-07-29T16:34:51;7.47;;;6.63;;